»·PEaware :: SWA6969 KPHX-KATL

SWA6969 :: KPHX-KATL

FLIGHT INFORMATION

Flight Status: Arrived
Operator:
Southwest Airlines
More flights by this operator :: More flights under this callsign
Pilot: Kyle K. (11122)
Aircraft: BOEING 737-300
(B733)
More flights by this aircraft type
Origin: KPHX Phoenix Sky Harbor Intl
United States
Destination: KATL Hartsfield-Jackson Atlanta
United States
More flights between these airports :: More routes between these airports
Route: FTHLS5 MAXXO IRW MEM HUTCC KNSAW EEZRA STOWL1
File this flight plan on PilotEdge
Remarks:
Altitude:
(Current/Filed)
35,000ft
Speed:
(Current/Filed)
425kts
Departed: 17-Aug-17 09:48 AM
Arrived: 17-Aug-17 01:25 PM
Distance/Time
Traveled:
1375nm/3:36
Distance/Time
To Go:
Arrived

Flight Plot

Page will automatically refresh every two minutes.

Flight plan parsing failed; only flown route is shown


Map Options




Map Legend


Flown Route
Filed Route
Departure Airport
Arrival Airport
Navaid (VOR, NDB)
Fix

Horizontal Profiles

Position Reports

Time Latitude Longitude Heading Altitude Ground
Speed
17-Aug-17 09:29 33.433907 -111.999925 100 1126ft 0kts
17-Aug-17 09:30 33.433907 -111.999925 100 1126ft 0kts
17-Aug-17 09:31 33.433907 -111.999925 100 1126ft 0kts
17-Aug-17 09:32 33.433907 -111.999925 100 1126ft 0kts
17-Aug-17 09:33 33.433907 -111.999925 100 1126ft 0kts
17-Aug-17 09:34 33.433907 -111.999925 100 1126ft 0kts
17-Aug-17 09:35 33.433907 -111.999925 100 1126ft 0kts
17-Aug-17 09:36 33.433907 -111.999925 100 1126ft 0kts
17-Aug-17 09:37 33.433907 -111.999925 100 1126ft 0kts
17-Aug-17 09:38 33.433907 -111.999925 100 1126ft 0kts
17-Aug-17 09:39 33.433907 -111.999925 100 1126ft 0kts
17-Aug-17 09:40 33.433907 -111.999925 100 1126ft 0kts
17-Aug-17 09:41 33.433917 -111.999984 100 1126ft 0kts
17-Aug-17 09:42 33.433993 -112.000481 100 1126ft 0kts
17-Aug-17 09:43 33.433993 -112.000481 100 1126ft 0kts
17-Aug-17 09:44 33.433993 -112.000481 100 1126ft 0kts
17-Aug-17 09:45 33.433680 -112.000362 190 1126ft 5kts
17-Aug-17 09:46 33.432830 -112.003279 270 1125ft 14kts
17-Aug-17 09:47 33.432860 -112.007834 269 1128ft 14kts
17-Aug-17 09:48 33.432877 -112.012998 269 1123ft 19kts
17-Aug-17 09:49 33.432864 -112.019985 273 1116ft 24kts
17-Aug-17 09:50 33.432678 -112.026820 220 1113ft 13kts
17-Aug-17 09:51 33.431052 -112.025624 90 1115ft 34kts
17-Aug-17 09:52 33.431332 -111.985855 87 1485ft 195kts
17-Aug-17 09:53 33.434278 -111.923997 88 2165ft 224kts
17-Aug-17 09:54 33.442491 -111.844499 81 3745ft 270kts
17-Aug-17 09:55 33.454929 -111.758330 82 6092ft 280kts
17-Aug-17 09:56 33.468100 -111.666368 82 8440ft 291kts
17-Aug-17 09:57 33.481911 -111.569252 82 10294ft 321kts
17-Aug-17 09:58 33.498262 -111.453665 82 11500ft 370kts
17-Aug-17 09:59 33.515088 -111.333900 82 13607ft 384kts
17-Aug-17 10:00 33.534181 -111.206778 74 15666ft 398kts
17-Aug-17 10:01 33.570031 -111.079534 73 17558ft 412kts
17-Aug-17 10:02 33.606821 -110.948310 73 19347ft 424kts
17-Aug-17 10:03 33.644488 -110.813266 73 21006ft 436kts
17-Aug-17 10:04 33.683033 -110.674398 72 22517ft 448kts
17-Aug-17 10:05 33.716667 -110.552666 72 23720ft 458kts
17-Aug-17 10:06 33.749162 -110.434552 72 24797ft 467kts
17-Aug-17 10:07 33.789009 -110.287054 73 25996ft 477kts
17-Aug-17 10:08 33.830444 -110.134703 73 27188ft 486kts
17-Aug-17 10:09 33.872427 -109.979882 73 28428ft 490kts
17-Aug-17 10:10 33.913989 -109.825777 72 29823ft 488kts
17-Aug-17 10:11 33.955429 -109.671272 72 31006ft 488kts
17-Aug-17 10:12 33.996714 -109.516475 72 32043ft 487kts
17-Aug-17 10:13 34.037733 -109.361804 72 32938ft 487kts
17-Aug-17 10:14 34.077260 -109.208685 72 33638ft 486kts
17-Aug-17 10:15 34.117407 -109.056308 72 34174ft 487kts
17-Aug-17 10:16 34.157986 -108.901125 72 34725ft 486kts
17-Aug-17 10:17 34.198031 -108.746737 72 35182ft 484kts
17-Aug-17 10:18 34.237979 -108.591795 72 35432ft 484kts
17-Aug-17 10:19 34.277476 -108.437729 72 35420ft 483kts
17-Aug-17 10:20 34.315036 -108.290221 73 35386ft 483kts
17-Aug-17 10:21 34.354274 -108.135295 73 35386ft 483kts
17-Aug-17 10:22 34.387294 -107.980110 91 35390ft 478kts
17-Aug-17 10:23 34.386679 -107.819413 91 35382ft 481kts
17-Aug-17 10:24 34.388535 -107.658492 91 35349ft 480kts
17-Aug-17 10:25 34.390142 -107.497714 91 35280ft 480kts
17-Aug-17 10:26 34.391525 -107.339007 91 35262ft 481kts
17-Aug-17 10:27 34.392704 -107.180624 91 35266ft 480kts
17-Aug-17 10:28 34.393685 -107.019939 91 35268ft 480kts
17-Aug-17 10:29 34.394455 -106.860109 91 35267ft 476kts
17-Aug-17 10:30 34.395053 -106.701252 90 35264ft 475kts
17-Aug-17 10:31 34.416048 -106.543935 80 35272ft 478kts
17-Aug-17 10:32 34.438795 -106.386132 80 35274ft 478kts
17-Aug-17 10:33 34.460855 -106.230904 81 35285ft 477kts
17-Aug-17 10:34 34.483143 -106.072831 81 35302ft 477kts
17-Aug-17 10:35 34.505175 -105.915062 81 35324ft 477kts
17-Aug-17 10:36 34.526972 -105.757442 81 35343ft 477kts
17-Aug-17 10:37 34.548605 -105.599462 81 35393ft 477kts
17-Aug-17 10:38 34.570018 -105.441510 81 35404ft 477kts
17-Aug-17 10:39 34.591040 -105.284738 82 35389ft 476kts
17-Aug-17 10:40 34.611949 -105.127288 82 35397ft 477kts
17-Aug-17 10:41 34.632697 -104.969533 81 35395ft 475kts
17-Aug-17 10:42 34.653155 -104.812464 81 35392ft 473kts
17-Aug-17 10:43 34.673350 -104.655804 81 35395ft 474kts
17-Aug-17 10:44 34.693414 -104.498526 81 35308ft 474kts
17-Aug-17 10:45 34.713160 -104.342107 82 35191ft 474kts
17-Aug-17 10:46 34.732727 -104.185192 82 35204ft 474kts
17-Aug-17 10:47 34.752194 -104.027638 82 35203ft 474kts
17-Aug-17 10:47 34.768257 -103.896308 82 35203ft 474kts
17-Aug-17 10:48 34.787372 -103.738447 82 35203ft 474kts
17-Aug-17 10:50 34.809366 -103.554595 82 35212ft 474kts
17-Aug-17 10:50 34.824952 -103.422825 82 35222ft 474kts
17-Aug-17 10:51 34.843250 -103.266340 83 35238ft 473kts
17-Aug-17 10:53 34.864505 -103.082449 82 35261ft 472kts
17-Aug-17 10:53 34.879456 -102.951606 82 35257ft 469kts
17-Aug-17 10:54 34.897173 -102.794875 82 35242ft 471kts
17-Aug-17 10:55 34.914772 -102.637351 82 35230ft 473kts
17-Aug-17 10:56 34.932255 -102.478947 82 35230ft 475kts
17-Aug-17 10:57 34.949376 -102.321896 83 35189ft 477kts
17-Aug-17 10:58 34.966504 -102.162674 83 35231ft 478kts
17-Aug-17 10:59 34.983476 -102.003093 83 35225ft 480kts
17-Aug-17 11:00 35.000331 -101.842555 83 35222ft 481kts
17-Aug-17 11:01 35.017010 -101.681612 83 35221ft 483kts
17-Aug-17 11:02 35.033527 -101.520097 83 35221ft 484kts
17-Aug-17 11:03 35.049911 -101.357719 83 35222ft 485kts
17-Aug-17 11:04 35.065821 -101.197709 84 35220ft 485kts
17-Aug-17 11:05 35.081768 -101.035273 84 35213ft 485kts
17-Aug-17 11:06 35.097461 -100.873177 84 35212ft 483kts
17-Aug-17 11:07 35.113033 -100.713025 84 35203ft 482kts
17-Aug-17 11:08 35.128259 -100.551252 84 35186ft 482kts
17-Aug-17 11:09 35.143242 -100.389690 84 35172ft 482kts
17-Aug-17 11:10 35.157842 -100.229683 85 35159ft 482kts
17-Aug-17 11:11 35.172441 -100.067509 85 35157ft 482kts
17-Aug-17 11:12 35.186766 -99.905992 85 35157ft 482kts
17-Aug-17 11:13 35.200879 -99.744514 85 35157ft 482kts
17-Aug-17 11:14 35.214849 -99.582136 85 35157ft 482kts
17-Aug-17 11:15 35.228534 -99.420521 85 35162ft 482kts
17-Aug-17 11:16 35.241724 -99.262032 85 35163ft 481kts
17-Aug-17 11:17 35.254986 -99.100222 85 35168ft 481kts
17-Aug-17 11:18 35.267942 -98.939584 86 35155ft 477kts
17-Aug-17 11:19 35.280597 -98.779979 86 35143ft 475kts
17-Aug-17 11:20 35.293049 -98.620235 86 35149ft 476kts
17-Aug-17 11:21 35.305290 -98.460472 86 35148ft 476kts
17-Aug-17 11:23 35.316867 -98.306648 86 35119ft 475kts
17-Aug-17 11:24 35.328710 -98.146447 86 35139ft 475kts
17-Aug-17 11:25 35.340292 -97.987050 86 35140ft 475kts
17-Aug-17 11:26 35.351620 -97.828227 86 35141ft 475kts
17-Aug-17 11:27 35.362643 -97.670774 86 35133ft 477kts
17-Aug-17 11:28 35.359080 -97.515985 96 35125ft 474kts
17-Aug-17 11:29 35.355222 -97.365269 92 35121ft 475kts
17-Aug-17 11:30 35.352873 -97.206744 93 35120ft 475kts
17-Aug-17 11:31 35.350772 -97.078308 93 35121ft 472kts
17-Aug-17 11:32 35.347625 -96.900030 93 35106ft 468kts
17-Aug-17 11:33 35.344479 -96.735088 93 35112ft 469kts
17-Aug-17 11:34 35.341164 -96.572644 93 35113ft 469kts
17-Aug-17 11:35 35.337550 -96.406597 93 35095ft 469kts
17-Aug-17 11:36 35.334355 -96.267237 94 35025ft 467kts
17-Aug-17 11:37 35.330132 -96.093529 94 35011ft 468kts
17-Aug-17 11:38 35.326073 -95.935489 94 35024ft 468kts
17-Aug-17 11:39 35.324345 -95.870513 94 35026ft 468kts
17-Aug-17 11:40 35.323520 -95.839976 94 35025ft 468kts
17-Aug-17 11:41 35.322841 -95.815037 94 35027ft 468kts
17-Aug-17 11:42 35.322151 -95.789886 94 35027ft 468kts
17-Aug-17 11:43 35.321344 -95.760717 94 35027ft 468kts
17-Aug-17 11:44 35.320615 -95.734588 94 35028ft 468kts
17-Aug-17 11:45 35.319820 -95.706279 94 35035ft 468kts
17-Aug-17 11:46 35.317936 -95.640946 94 35056ft 468kts
17-Aug-17 11:47 35.313642 -95.496622 94 35110ft 469kts
17-Aug-17 11:48 35.312221 -95.449946 94 35113ft 469kts
17-Aug-17 11:49 35.311593 -95.429546 94 35113ft 469kts
17-Aug-17 11:50 35.310903 -95.407228 94 35113ft 469kts
17-Aug-17 11:51 35.308972 -95.345521 95 35110ft 469kts
17-Aug-17 11:52 35.306289 -95.260851 95 35110ft 468kts
17-Aug-17 11:53 35.301737 -95.122407 95 35113ft 468kts
17-Aug-17 11:54 35.299572 -95.058195 95 35111ft 468kts
17-Aug-17 11:55 35.298425 -95.024623 95 35111ft 468kts
17-Aug-17 11:56 35.294436 -94.909845 95 35112ft 468kts
17-Aug-17 11:57 35.290811 -94.808327 95 35111ft 469kts
17-Aug-17 11:58 35.285030 -94.650957 95 35103ft 469kts
17-Aug-17 11:59 35.279043 -94.493593 95 35087ft 468kts
17-Aug-17 12:00 35.272930 -94.338140 95 35042ft 469kts
17-Aug-17 12:01 35.266697 -94.184165 95 35049ft 468kts
17-Aug-17 12:02 35.260115 -94.027047 96 35048ft 469kts
17-Aug-17 12:03 35.253310 -93.869548 96 35047ft 468kts
17-Aug-17 12:04 35.246318 -93.712430 95 35051ft 468kts
17-Aug-17 12:05 35.239081 -93.554445 95 35057ft 468kts
17-Aug-17 12:06 35.231693 -93.397598 96 35056ft 468kts
17-Aug-17 12:07 35.224270 -93.243772 96 35057ft 468kts
17-Aug-17 12:08 35.216467 -93.086696 96 35058ft 468kts
17-Aug-17 12:09 35.208513 -92.930591 96 35056ft 464kts
17-Aug-17 12:10 35.200412 -92.775699 96 35054ft 463kts
17-Aug-17 12:11 35.192137 -92.621215 96 35057ft 463kts
17-Aug-17 12:12 35.183609 -92.465678 96 35059ft 463kts
17-Aug-17 12:13 35.175095 -92.313828 97 35025ft 463kts
17-Aug-17 12:14 35.166212 -92.158750 97 35060ft 463kts
17-Aug-17 12:15 35.157121 -92.003800 97 35028ft 462kts
17-Aug-17 12:16 35.147809 -91.848481 97 34999ft 462kts
17-Aug-17 12:17 35.138333 -91.693758 97 35002ft 462kts
17-Aug-17 12:18 35.128609 -91.538317 97 35002ft 462kts
17-Aug-17 12:19 35.118681 -91.382788 97 35003ft 462kts
17-Aug-17 12:20 35.108748 -91.229894 98 35000ft 462kts
17-Aug-17 12:21 35.098456 -91.074799 97 35017ft 460kts
17-Aug-17 12:22 35.088050 -90.921019 96 35034ft 456kts
17-Aug-17 12:23 35.077518 -90.768317 96 35019ft 457kts
17-Aug-17 12:24 35.066835 -90.616173 96 35011ft 457kts
17-Aug-17 12:25 35.055981 -90.464348 96 35012ft 457kts
17-Aug-17 12:26 35.045326 -90.317772 96 34982ft 457kts
17-Aug-17 12:27 35.034267 -90.168266 94 35018ft 458kts
17-Aug-17 12:28 35.023618 -90.025490 96 34856ft 455kts
17-Aug-17 12:29 35.001684 -89.881250 102 35003ft 452kts
17-Aug-17 12:30 34.980496 -89.733400 101 35032ft 450kts
17-Aug-17 12:31 34.959809 -89.586142 101 35028ft 447kts
17-Aug-17 12:32 34.939034 -89.439660 101 35029ft 445kts
17-Aug-17 12:33 34.919130 -89.300403 101 35017ft 442kts
17-Aug-17 12:34 34.898359 -89.156392 101 35029ft 441kts
17-Aug-17 12:35 34.877265 -89.013324 101 35036ft 440kts
17-Aug-17 12:36 34.855781 -88.867053 102 35038ft 449kts
17-Aug-17 12:37 34.833695 -88.717931 102 35056ft 457kts
17-Aug-17 12:38 34.811408 -88.568742 102 35038ft 455kts
17-Aug-17 12:39 34.788954 -88.419774 102 35038ft 456kts
17-Aug-17 12:40 34.767231 -88.276589 102 34452ft 456kts
17-Aug-17 12:41 34.744208 -88.126300 102 33079ft 457kts
17-Aug-17 12:42 34.721223 -87.977573 102 31776ft 453kts
17-Aug-17 12:43 34.697858 -87.827723 102 30709ft 458kts
17-Aug-17 12:44 34.674104 -87.676621 102 29634ft 461kts
17-Aug-17 12:45 34.649979 -87.524447 102 28557ft 464kts
17-Aug-17 12:46 34.622920 -87.373032 106 27482ft 465kts
17-Aug-17 12:47 34.595400 -87.227902 104 26424ft 468kts
17-Aug-17 12:48 34.568035 -87.078273 104 25697ft 469kts
17-Aug-17 12:49 34.541879 -86.929288 107 24831ft 450kts
17-Aug-17 12:50 34.505618 -86.786940 108 23903ft 445kts
17-Aug-17 12:51 34.469855 -86.646047 108 23034ft 439kts
17-Aug-17 12:52 34.434422 -86.507111 108 22248ft 435kts
17-Aug-17 12:53 34.399573 -86.371178 108 21470ft 430kts
17-Aug-17 12:54 34.379035 -86.291220 109 20976ft 427kts
17-Aug-17 12:55 34.344536 -86.157661 109 20197ft 423kts
17-Aug-17 12:56 34.310193 -86.025445 109 19417ft 418kts
17-Aug-17 12:57 34.276475 -85.896272 108 18646ft 414kts
17-Aug-17 12:58 34.242789 -85.767840 108 17871ft 409kts
17-Aug-17 12:59 34.209251 -85.640576 108 17094ft 405kts
17-Aug-17 13:00 34.175868 -85.514495 108 16317ft 401kts
17-Aug-17 13:01 34.142638 -85.389572 108 15539ft 397kts
17-Aug-17 13:01 34.116866 -85.292839 109 14852ft 365kts
17-Aug-17 13:02 34.086162 -85.178354 109 14114ft 365kts
17-Aug-17 13:03 34.055861 -85.066816 114 13389ft 360kts
17-Aug-17 13:04 33.989202 -84.987575 141 12690ft 352kts
17-Aug-17 13:06 33.905803 -84.901449 141 11981ft 347kts
17-Aug-17 13:07 33.837849 -84.831441 140 11738ft 348kts
17-Aug-17 13:08 33.767519 -84.758809 140 11791ft 348kts
17-Aug-17 13:09 33.691927 -84.693925 151 11783ft 345kts
17-Aug-17 13:09 33.625176 -84.646929 151 11141ft 334kts
17-Aug-17 13:10 33.551769 -84.591533 132 10157ft 315kts
17-Aug-17 13:11 33.536626 -84.497542 89 9334ft 306kts
17-Aug-17 13:12 33.536843 -84.404705 89 8953ft 302kts
17-Aug-17 13:13 33.536934 -84.321020 90 7963ft 280kts
17-Aug-17 13:14 33.536980 -84.235969 90 6903ft 262kts
17-Aug-17 13:15 33.537033 -84.155595 90 5843ft 247kts
17-Aug-17 13:16 33.536849 -84.079447 89 4956ft 224kts
17-Aug-17 13:17 33.549819 -84.012177 43 4212ft 218kts
17-Aug-17 13:18 33.601019 -83.998799 334 3994ft 205kts
17-Aug-17 13:19 33.633125 -84.049540 285 4025ft 194kts
17-Aug-17 13:20 33.636410 -84.109530 266 3999ft 184kts
17-Aug-17 13:21 33.634212 -84.164921 269 4000ft 170kts
17-Aug-17 13:22 33.634433 -84.216736 270 3995ft 170kts
17-Aug-17 13:23 33.634599 -84.265847 269 3312ft 156kts
17-Aug-17 13:24 33.634638 -84.307787 269 2638ft 138kts
17-Aug-17 13:25 33.634666 -84.347870 269 1989ft 136kts
17-Aug-17 13:26 33.634393 -84.384995 272 1347ft 133kts
17-Aug-17 13:27 33.634669 -84.420933 272 985ft 107kts
17-Aug-17 13:28 33.635586 -84.431652 301 1008ft 15kts
17-Aug-17 13:29 33.636336 -84.433156 341 1011ft 7kts
17-Aug-17 13:30 33.638520 -84.433944 2 1011ft 7kts
17-Aug-17 13:31 33.638688 -84.433182 88 1011ft 0kts
17-Aug-17 13:32 33.638688 -84.433182 88 1011ft 0kts

Navigation Log

Ident Type
Flight plan parsing failed, navigation log unavailable